Time;durP1;ratioP1;P1;durP2;ratioP2;P2;SDS_P1;SDS_P2;PMS_P1;PMS_P2;Temp;Humidity;BMP_temperature;BMP_pressure;BME280_temperature;BME280_humidity;BME280_pressure;Samples;Min_cycle;Max_cycle;Signal;HPM_P1;HPM_P2
2023/08/11 00:00:32;;;;;;;0.10;0.10;;;12.10;55.40;;;;;;5032930;28;20211;-55
2023/08/11 00:03:05;;;;;;;0.20;0.20;;;12.10;55.40;;;;;;5033284;28;20223;-54
2023/08/11 00:05:40;;;;;;;0.20;0.20;;;12.20;55.50;;;;;;5030123;28;20286;-51
2023/08/11 00:08:13;;;;;;;0.20;0.20;;;12.10;55.40;;;;;;5029823;28;20566;-49
2023/08/11 00:10:43;;;;;;;0.20;0.20;;;12.20;55.40;;;;;;5035385;28;20559;-52
2023/08/11 00:13:15;;;;;;;0.10;0.10;;;12.20;55.40;;;;;;5038047;28;20675;-52
2023/08/11 00:15:45;;;;;;;0.10;0.10;;;12.20;55.50;;;;;;5030864;28;20311;-51
2023/08/11 00:18:16;;;;;;;0.10;0.10;;;12.30;55.50;;;;;;5032560;28;20196;-49
2023/08/11 00:20:47;;;;;;;0.10;0.10;;;12.30;55.40;;;;;;5031905;28;20193;-53
2023/08/11 00:23:20;;;;;;;0.20;0.20;;;12.30;55.50;;;;;;5031825;28;20612;-56
2023/08/11 00:25:50;;;;;;;0.10;0.10;;;12.30;55.50;;;;;;5031623;28;20231;-53
2023/08/11 00:28:21;;;;;;;0.10;0.10;;;12.30;55.50;;;;;;5031338;28;20223;-49
2023/08/11 00:30:51;;;;;;;0.20;0.20;;;12.40;55.60;;;;;;5031325;28;20188;-54
2023/08/11 00:33:22;;;;;;;0.10;0.10;;;12.40;55.60;;;;;;5031276;28;20200;-50
2023/08/11 00:35:53;;;;;;;0.10;0.10;;;12.40;55.60;;;;;;5031645;28;20219;-48
2023/08/11 00:38:37;;;;;;;0.10;0.10;;;12.40;55.60;;;;;;5031452;28;20660;-48
2023/08/11 00:41:08;;;;;;;0.10;0.10;;;12.50;55.70;;;;;;5031299;28;20188;-50
2023/08/11 00:43:39;;;;;;;0.10;0.10;;;12.50;55.80;;;;;;5030993;28;20196;-52
2023/08/11 00:46:13;;;;;;;0.10;0.10;;;12.50;55.80;;;;;;5030887;28;20208;-54
2023/08/11 00:48:47;;;;;;;0.10;0.10;;;12.60;55.80;;;;;;5031268;28;20227;-52
2023/08/11 00:51:19;;;;;;;0.10;0.10;;;12.60;55.80;;;;;;5031139;28;20544;-55
2023/08/11 00:53:52;;;;;;;0.10;0.10;;;12.60;55.80;;;;;;5030853;28;20291;-49
2023/08/11 00:56:24;;;;;;;0.20;0.20;;;12.60;55.70;;;;;;5031180;28;20204;-52
2023/08/11 00:58:55;;;;;;;0.13;0.13;;;12.60;55.70;;;;;;5030752;28;20204;-53
2023/08/11 01:01:26;;;;;;;0.13;0.13;;;12.70;55.70;;;;;;5029223;28;20199;-53
2023/08/11 01:03:57;;;;;;;0.13;0.13;;;12.70;55.80;;;;;;5031331;28;20677;-51
2023/08/11 01:06:37;;;;;;;0.20;0.20;;;12.70;56.30;;;;;;5029712;28;20212;-56
2023/08/11 01:09:17;;;;;;;0.20;0.20;;;12.70;55.80;;;;;;5024573;28;20311;-56
2023/08/11 01:11:55;;;;;;;0.10;0.10;;;12.80;56.00;;;;;;5030998;28;20196;-56
2023/08/11 01:14:30;;;;;;;0.10;0.10;;;12.80;56.00;;;;;;5030767;28;20198;-55
2023/08/11 01:17:04;;;;;;;0.10;0.10;;;12.90;56.10;;;;;;5029679;28;20215;-54
2023/08/11 01:19:37;;;;;;;0.10;0.10;;;12.90;56.00;;;;;;5027758;28;20200;-50
2023/08/11 01:22:13;;;;;;;0.10;0.10;;;12.90;56.10;;;;;;5031419;28;20560;-56
2023/08/11 01:24:47;;;;;;;0.10;0.10;;;13.00;56.00;;;;;;5031142;28;20652;-55
2023/08/11 01:27:18;;;;;;;0.20;0.20;;;13.00;56.00;;;;;;5031409;28;20227;-50
2023/08/11 01:29:48;;;;;;;0.10;0.10;;;13.00;56.10;;;;;;5030065;28;20193;-50
2023/08/11 01:32:20;;;;;;;0.10;0.10;;;13.00;56.10;;;;;;5030934;28;20211;-50
2023/08/11 01:34:51;;;;;;;0.10;0.10;;;13.00;56.10;;;;;;5050690;28;20245;-55
2023/08/11 01:37:21;;;;;;;0.20;0.20;;;13.10;56.30;;;;;;5051307;28;20222;-54
2023/08/11 01:39:54;;;;;;;0.10;0.10;;;13.10;56.40;;;;;;5051368;28;20199;-53
2023/08/11 01:42:25;;;;;;;0.10;0.10;;;13.10;56.40;;;;;;5051502;28;20207;-51
2023/08/11 01:44:56;;;;;;;0.10;0.10;;;13.10;56.40;;;;;;5050927;28;20270;-53
2023/08/11 01:47:27;;;;;;;0.10;0.10;;;13.20;56.40;;;;;;5050800;28;20215;-53
2023/08/11 01:49:58;;;;;;;0.10;0.10;;;13.20;56.50;;;;;;5051137;28;20206;-52
2023/08/11 01:52:30;;;;;;;0.10;0.10;;;13.20;56.40;;;;;;5052632;28;20198;-51
2023/08/11 01:55:03;;;;;;;0.10;0.10;;;13.30;56.40;;;;;;5015369;28;20207;-51
2023/08/11 01:57:34;;;;;;;0.10;0.10;;;13.30;56.40;;;;;;5015336;28;20305;-54
2023/08/11 02:00:07;;;;;;;0.10;0.10;;;13.30;56.40;;;;;;5015675;28;20716;-54
2023/08/11 02:02:38;;;;;;;0.10;0.10;;;13.40;56.40;;;;;;5015979;28;20295;-56
2023/08/11 02:05:11;;;;;;;0.17;0.17;;;13.40;56.40;;;;;;5015294;28;20270;-54
2023/08/11 02:07:45;;;;;;;0.10;0.10;;;13.40;56.30;;;;;;5026518;28;20676;-55
2023/08/11 02:10:17;;;;;;;0.10;0.10;;;13.50;56.30;;;;;;5034926;28;20197;-54
2023/08/11 02:12:48;;;;;;;0.10;0.10;;;13.50;56.30;;;;;;5034743;28;20196;-55
2023/08/11 02:15:18;;;;;;;0.10;0.10;;;13.50;56.20;;;;;;5034865;28;20204;-56
2023/08/11 02:17:49;;;;;;;0.10;0.10;;;13.50;56.10;;;;;;5034669;28;20579;-55
2023/08/11 02:20:21;;;;;;;0.20;0.20;;;13.60;56.20;;;;;;5034583;28;20200;-54
2023/08/11 02:22:52;;;;;;;0.10;0.10;;;13.60;56.20;;;;;;5034788;28;20196;-56
2023/08/11 02:25:25;;;;;;;0.10;0.10;;;13.60;56.10;;;;;;5034803;28;20308;-54
2023/08/11 02:27:56;;;;;;;0.10;0.10;;;13.60;56.10;;;;;;5034706;28;20254;-54
2023/08/11 02:30:29;;;;;;;0.10;0.10;;;13.70;56.10;;;;;;5034550;28;20193;-56
2023/08/11 02:32:59;;;;;;;0.10;0.10;;;13.70;56.00;;;;;;5034631;28;20196;-52
2023/08/11 02:35:30;;;;;;;0.10;0.10;;;13.70;56.00;;;;;;5034286;28;20199;-52
2023/08/11 02:38:01;;;;;;;0.10;0.10;;;13.70;55.90;;;;;;5034457;28;20211;-53
2023/08/11 02:40:35;;;;;;;0.10;0.10;;;13.80;55.90;;;;;;5034267;28;20207;-53
2023/08/11 02:43:07;;;;;;;0.10;0.10;;;13.80;56.00;;;;;;5034026;28;20196;-53
2023/08/11 02:45:37;;;;;;;0.10;0.10;;;13.80;55.90;;;;;;5034285;28;20604;-57
2023/08/11 02:48:08;;;;;;;0.10;0.10;;;13.80;55.80;;;;;;5033844;28;20220;-56
2023/08/11 02:50:39;;;;;;;0.10;0.10;;;13.90;55.90;;;;;;5033691;28;20197;-52
2023/08/11 02:53:10;;;;;;;0.17;0.17;;;13.90;55.90;;;;;;5033548;28;20614;-52
2023/08/11 02:55:43;;;;;;;0.10;0.10;;;13.90;55.90;;;;;;5033760;28;20239;-55
2023/08/11 02:58:14;;;;;;;0.10;0.10;;;13.90;55.80;;;;;;5033508;28;20203;-51
2023/08/11 03:00:45;;;;;;;0.10;0.10;;;14.00;55.80;;;;;;5033692;28;20601;-53
2023/08/11 03:03:16;;;;;;;0.10;0.10;;;14.00;55.70;;;;;;5033663;28;20227;-52
2023/08/11 03:05:46;;;;;;;0.10;0.10;;;14.00;55.60;;;;;;5033268;28;20216;-53
2023/08/11 03:08:17;;;;;;;0.10;0.10;;;14.10;55.70;;;;;;5033232;28;20227;-53
2023/08/11 03:10:50;;;;;;;0.10;0.10;;;14.10;55.70;;;;;;5033329;28;20200;-54
2023/08/11 03:13:20;;;;;;;0.10;0.10;;;14.10;55.70;;;;;;5033025;28;20200;-54
2023/08/11 03:15:52;;;;;;;0.10;0.10;;;14.10;55.70;;;;;;5033560;28;20273;-54
2023/08/11 03:18:22;;;;;;;0.10;0.10;;;14.10;55.70;;;;;;5033353;28;20262;-55
2023/08/11 03:20:53;;;;;;;0.10;0.10;;;14.20;55.70;;;;;;5033192;28;20208;-53
2023/08/11 03:23:24;;;;;;;0.10;0.10;;;14.20;55.70;;;;;;5033321;28;20254;-53
2023/08/11 03:25:56;;;;;;;0.10;0.10;;;14.20;55.70;;;;;;5029682;28;20703;-52
2023/08/11 03:28:27;;;;;;;0.10;0.10;;;14.30;55.60;;;;;;5013442;28;20275;-54
2023/08/11 03:30:59;;;;;;;0.10;0.10;;;14.30;55.60;;;;;;5013589;28;20204;-52
2023/08/11 03:33:30;;;;;;;0.10;0.10;;;14.30;55.60;;;;;;5013556;28;20204;-54
2023/08/11 03:36:01;;;;;;;0.10;0.10;;;14.30;55.60;;;;;;5013043;28;20224;-56
2023/08/11 03:38:32;;;;;;;0.10;0.10;;;14.40;55.60;;;;;;5013077;28;20686;-54
2023/08/11 03:41:04;;;;;;;0.10;0.10;;;14.40;55.50;;;;;;5013350;28;20200;-56
2023/08/11 03:43:35;;;;;;;0.10;0.10;;;14.40;55.40;;;;;;5013278;28;20205;-56
2023/08/11 03:46:06;;;;;;;0.10;0.10;;;14.40;55.40;;;;;;5012747;28;20580;-55
2023/08/11 03:48:36;;;;;;;0.00;0.00;;;14.50;55.40;;;;;;5012607;28;20220;-55
2023/08/11 03:51:07;;;;;;;0.10;0.10;;;14.50;55.40;;;;;;5012983;28;20207;-51
2023/08/11 03:53:38;;;;;;;0.10;0.10;;;14.50;55.40;;;;;;5021830;28;20652;-55
2023/08/11 03:56:11;;;;;;;0.08;0.08;;;14.50;55.40;;;;;;5032936;28;20587;-56
2023/08/11 03:58:42;;;;;;;0.10;0.10;;;14.60;55.40;;;;;;5032721;28;20197;-52
2023/08/11 04:01:13;;;;;;;0.10;0.10;;;14.60;55.30;;;;;;5032413;28;20200;-52
2023/08/11 04:03:43;;;;;;;0.10;0.10;;;14.60;55.30;;;;;;5032538;28;20212;-55
2023/08/11 04:06:14;;;;;;;0.10;0.10;;;14.60;55.30;;;;;;5032152;28;20564;-55
2023/08/11 04:08:45;;;;;;;0.10;0.10;;;14.70;55.30;;;;;;5031546;28;20224;-56
2023/08/11 04:11:18;;;;;;;0.10;0.10;;;14.70;55.30;;;;;;5032097;28;20235;-53
2023/08/11 04:13:48;;;;;;;0.10;0.10;;;14.70;55.20;;;;;;5032084;28;20704;-55
2023/08/11 04:16:19;;;;;;;0.10;0.10;;;14.70;55.20;;;;;;5031935;28;20223;-56
2023/08/11 04:18:49;;;;;;;0.10;0.10;;;14.80;55.10;;;;;;5032494;28;20207;-53
2023/08/11 04:21:20;;;;;;;0.10;0.10;;;14.80;55.00;;;;;;5032166;28;20200;-56
2023/08/11 04:23:51;;;;;;;0.10;0.10;;;14.80;55.00;;;;;;5032350;28;20207;-55
2023/08/11 04:26:23;;;;;;;0.10;0.10;;;14.90;55.00;;;;;;5032142;28;20723;-55
2023/08/11 04:28:55;;;;;;;0.10;0.10;;;14.90;54.90;;;;;;5031927;28;20220;-56
2023/08/11 04:31:26;;;;;;;0.10;0.10;;;15.00;54.80;;;;;;5031535;28;20562;-54
2023/08/11 04:33:57;;;;;;;0.10;0.10;;;15.00;54.80;;;;;;5031894;28;20218;-55
2023/08/11 04:36:28;;;;;;;0.10;0.10;;;15.00;54.70;;;;;;5032153;28;20285;-56
2023/08/11 04:38:58;;;;;;;0.10;0.10;;;15.00;54.60;;;;;;5032234;28;20196;-55
2023/08/11 04:41:31;;;;;;;0.10;0.10;;;15.00;54.70;;;;;;5032256;28;20207;-56
2023/08/11 04:44:02;;;;;;;0.10;0.10;;;15.00;54.60;;;;;;5032283;28;20196;-54
2023/08/11 04:46:33;;;;;;;0.10;0.10;;;15.00;54.60;;;;;;5025931;28;20219;-52
2023/08/11 04:49:04;;;;;;;0.10;0.10;;;15.00;54.60;;;;;;5030989;28;20707;-53
2023/08/11 04:51:34;;;;;;;0.10;0.10;;;15.10;54.70;;;;;;5039389;28;20827;-54
2023/08/11 04:54:07;;;;;;;0.10;0.10;;;15.10;54.60;;;;;;5030655;28;20820;-55
2023/08/11 04:56:39;;;;;;;0.10;0.10;;;15.10;54.50;;;;;;5031297;28;20224;-54
2023/08/11 04:59:10;;;;;;;0.10;0.10;;;15.00;54.30;;;;;;5030458;28;20607;-51
2023/08/11 05:01:43;;;;;;;0.10;0.10;;;15.10;54.30;;;;;;5030823;28;20192;-54
2023/08/11 05:04:14;;;;;;;0.10;0.10;;;15.10;54.20;;;;;;5030968;28;20200;-55
2023/08/11 05:06:44;;;;;;;0.10;0.10;;;15.00;54.20;;;;;;5030198;28;20295;-53
2023/08/11 05:09:15;;;;;;;0.10;0.10;;;15.10;54.10;;;;;;5031009;28;20235;-54
2023/08/11 05:11:47;;;;;;;0.10;0.10;;;15.00;54.10;;;;;;5031103;28;20203;-53
2023/08/11 05:14:18;;;;;;;0.10;0.10;;;15.00;54.10;;;;;;5030108;28;20192;-54
2023/08/11 05:16:49;;;;;;;0.10;0.10;;;15.00;54.00;;;;;;5029888;28;20212;-56
2023/08/11 05:19:19;;;;;;;0.10;0.10;;;15.00;54.00;;;;;;5030610;28;20694;-53
2023/08/11 05:21:51;;;;;;;0.10;0.10;;;15.00;54.00;;;;;;5031100;28;20650;-54
2023/08/11 05:24:21;;;;;;;0.15;0.15;;;15.00;54.00;;;;;;5030896;28;20610;-55
2023/08/11 05:26:54;;;;;;;0.10;0.10;;;15.00;54.00;;;;;;5050311;28;20204;-53
2023/08/11 05:29:24;;;;;;;0.10;0.10;;;15.00;53.90;;;;;;5040989;28;20219;-55
2023/08/11 05:31:55;;;;;;;0.10;0.10;;;15.00;53.90;;;;;;5032534;28;20438;-52
2023/08/11 05:34:26;;;;;;;0.10;0.10;;;15.00;53.90;;;;;;5031709;28;20184;-52
2023/08/11 05:36:57;;;;;;;0.10;0.10;;;15.00;53.90;;;;;;5032196;28;20226;-54
2023/08/11 05:39:28;;;;;;;0.10;0.10;;;15.00;53.80;;;;;;5034172;28;20199;-52
2023/08/11 05:42:01;;;;;;;0.10;0.10;;;15.00;53.80;;;;;;5033000;28;20208;-52
2023/08/11 05:44:31;;;;;;;0.10;0.10;;;14.90;53.70;;;;;;5033904;28;20196;-50
2023/08/11 05:47:02;;;;;;;0.10;0.10;;;14.90;53.70;;;;;;5034679;28;20680;-49
2023/08/11 05:49:33;;;;;;;0.10;0.10;;;14.90;53.70;;;;;;5033636;28;20232;-54
2023/08/11 05:52:03;;;;;;;0.20;0.20;;;14.90;53.70;;;;;;5034322;28;20192;-53
2023/08/11 05:54:34;;;;;;;0.10;0.10;;;14.90;54.30;;;;;;5033888;28;20215;-54
2023/08/11 05:57:07;;;;;;;0.10;0.10;;;14.90;53.70;;;;;;5034803;28;20219;-54
2023/08/11 05:59:38;;;;;;;0.10;0.10;;;14.90;53.70;;;;;;5033277;28;20196;-56
2023/08/11 06:02:08;;;;;;;0.10;0.10;;;14.90;53.70;;;;;;5033740;28;20199;-56
2023/08/11 06:04:39;;;;;;;0.10;0.10;;;14.90;53.70;;;;;;5035450;28;20602;-55
2023/08/11 06:07:10;;;;;;;0.08;0.08;;;14.90;53.80;;;;;;5033532;28;20227;-53
2023/08/11 06:09:41;;;;;;;0.10;0.10;;;14.90;53.80;;;;;;5034462;28;20215;-55
2023/08/11 06:12:13;;;;;;;0.10;0.10;;;14.80;53.80;;;;;;5033806;28;20227;-56
2023/08/11 06:14:44;;;;;;;0.10;0.10;;;14.90;53.80;;;;;;5033884;28;20188;-56
2023/08/11 06:17:15;;;;;;;0.10;0.10;;;14.80;53.70;;;;;;5034168;28;20215;-56
2023/08/11 06:19:45;;;;;;;0.10;0.10;;;14.80;53.70;;;;;;5034918;28;20207;-57
2023/08/11 06:22:16;;;;;;;0.10;0.10;;;14.80;53.70;;;;;;5033847;28;20268;-57
2023/08/11 06:24:47;;;;;;;0.10;0.10;;;14.90;53.70;;;;;;5034485;28;20593;-57
2023/08/11 06:27:19;;;;;;;0.10;0.10;;;14.80;53.70;;;;;;5034379;28;20702;-56
2023/08/11 06:29:50;;;;;;;0.10;0.10;;;14.80;53.70;;;;;;5032993;28;20223;-54
2023/08/11 06:32:20;;;;;;;0.10;0.10;;;14.80;53.70;;;;;;5034403;28;20196;-56
2023/08/11 06:34:51;;;;;;;0.10;0.10;;;14.80;53.70;;;;;;5033075;28;20196;-56
2023/08/11 06:37:23;;;;;;;0.10;0.10;;;14.80;53.70;;;;;;5032980;28;20212;-56
2023/08/11 06:39:58;;;;;;;0.10;0.10;;;14.80;53.70;;;;;;5033418;28;20258;-56
2023/08/11 06:42:30;;;;;;;0.10;0.10;;;14.80;53.70;;;;;;5034121;28;20218;-57
2023/08/11 06:45:01;;;;;;;0.00;0.00;;;14.80;53.80;;;;;;5034158;28;20196;-54
2023/08/11 06:47:31;;;;;;;0.10;0.10;;;14.80;53.80;;;;;;5034831;28;20227;-56
2023/08/11 06:50:02;;;;;;;0.00;0.00;;;14.80;53.80;;;;;;5033914;28;20588;-54
2023/08/11 06:52:33;;;;;;;0.10;0.10;;;14.80;53.80;;;;;;5053019;28;20644;-55
2023/08/11 06:55:05;;;;;;;0.10;0.10;;;14.80;54.40;;;;;;5015401;28;20204;-55
2023/08/11 06:57:37;;;;;;;0.10;0.10;;;14.80;53.80;;;;;;5033168;28;20223;-55
2023/08/11 07:00:09;;;;;;;0.10;0.10;;;14.70;53.80;;;;;;5034301;28;20207;-56
2023/08/11 07:02:39;;;;;;;0.10;0.10;;;14.80;53.80;;;;;;5033431;28;20238;-57
2023/08/11 07:05:14;;;;;;;0.10;0.10;;;14.70;53.80;;;;;;5033883;28;20443;-56
2023/08/11 07:07:44;;;;;;;0.10;0.10;;;14.70;53.80;;;;;;5033058;28;20242;-57
2023/08/11 07:10:19;;;;;;;0.10;0.10;;;14.70;53.80;;;;;;5033379;28;20690;-52
2023/08/11 07:12:52;;;;;;;0.10;0.10;;;14.70;53.80;;;;;;5020332;28;20544;-57
2023/08/11 07:15:22;;;;;;;0.10;0.10;;;14.70;53.80;;;;;;5013213;28;20657;-54
2023/08/11 07:17:53;;;;;;;0.00;0.00;;;14.70;53.80;;;;;;5013533;28;20207;-56
2023/08/11 07:20:24;;;;;;;0.10;0.10;;;14.70;53.80;;;;;;5013273;28;20197;-56
2023/08/11 07:22:55;;;;;;;0.10;0.10;;;14.70;53.80;;;;;;5050421;28;20208;-56
2023/08/11 07:25:26;;;;;;;0.00;0.00;;;14.60;53.80;;;;;;5033358;28;20203;-56
2023/08/11 07:27:58;;;;;;;0.10;0.10;;;14.60;53.80;;;;;;5032759;28;20192;-54
2023/08/11 07:30:30;;;;;;;0.10;0.10;;;14.60;53.80;;;;;;5033030;28;20220;-58
2023/08/11 07:33:01;;;;;;;0.10;0.10;;;14.70;53.80;;;;;;5033171;28;20656;-54
2023/08/11 07:35:32;;;;;;;0.10;0.10;;;14.60;53.80;;;;;;5032932;28;20211;-57
2023/08/11 07:38:03;;;;;;;0.10;0.10;;;14.60;53.80;;;;;;5033409;28;20232;-57
2023/08/11 07:40:34;;;;;;;0.10;0.10;;;14.60;53.80;;;;;;5033233;28;20203;-52
2023/08/11 07:43:09;;;;;;;0.10;0.10;;;14.60;53.80;;;;;;5026800;28;20193;-57
2023/08/11 07:45:40;;;;;;;0.10;0.10;;;14.60;53.80;;;;;;5012715;28;20201;-55
2023/08/11 07:48:11;;;;;;;0.10;0.10;;;14.60;53.80;;;;;;5013245;28;20201;-57
2023/08/11 07:50:43;;;;;;;0.10;0.10;;;14.60;53.80;;;;;;5012241;28;20790;-58
2023/08/11 07:53:13;;;;;;;0.10;0.10;;;14.60;53.80;;;;;;5027835;28;20211;-58
2023/08/11 07:55:45;;;;;;;0.10;0.10;;;14.50;53.70;;;;;;5032977;28;20698;-58
2023/08/11 07:58:17;;;;;;;0.10;0.10;;;14.50;53.70;;;;;;5032471;28;20206;-53
2023/08/11 08:00:48;;;;;;;0.10;0.10;;;14.50;53.70;;;;;;5032808;28;20200;-48
2023/08/11 08:03:18;;;;;;;0.20;0.20;;;14.50;53.70;;;;;;5032991;28;20204;-53
2023/08/11 08:05:49;;;;;;;0.10;0.10;;;14.50;53.70;;;;;;5032513;28;20227;-51
2023/08/11 08:08:20;;;;;;;0.10;0.10;;;14.50;53.70;;;;;;5032785;28;20203;-52
2023/08/11 08:10:50;;;;;;;0.10;0.10;;;14.40;53.70;;;;;;5032355;28;20228;-54
2023/08/11 08:13:23;;;;;;;0.10;0.10;;;14.40;53.70;;;;;;5030878;28;20204;-55
2023/08/11 08:15:53;;;;;;;0.10;0.10;;;14.40;53.80;;;;;;5031267;28;20589;-57
2023/08/11 08:18:24;;;;;;;0.10;0.10;;;14.40;53.80;;;;;;5032273;28;20196;-56
2023/08/11 08:20:55;;;;;;;0.10;0.10;;;14.40;53.80;;;;;;5032302;28;20200;-57
2023/08/11 08:23:25;;;;;;;0.10;0.10;;;14.40;53.70;;;;;;5032484;28;20655;-54
2023/08/11 08:25:56;;;;;;;0.10;0.10;;;14.30;53.80;;;;;;5032091;28;20216;-56
2023/08/11 08:28:29;;;;;;;0.10;0.10;;;14.40;53.80;;;;;;5031597;28;20202;-53
2023/08/11 08:30:59;;;;;;;0.10;0.10;;;14.30;53.70;;;;;;5032369;28;20645;-57
2023/08/11 08:33:30;;;;;;;0.10;0.10;;;14.30;53.80;;;;;;5032370;28;20655;-57
2023/08/11 08:36:01;;;;;;;0.10;0.10;;;14.30;53.80;;;;;;5032125;28;20692;-56
2023/08/11 08:38:31;;;;;;;0.10;0.10;;;14.30;53.80;;;;;;5032410;28;20192;-55
2023/08/11 08:41:02;;;;;;;0.10;0.10;;;14.30;53.80;;;;;;5032145;28;20235;-55
2023/08/11 08:43:35;;;;;;;0.10;0.10;;;14.20;53.70;;;;;;5031304;28;20655;-57
2023/08/11 08:46:07;;;;;;;0.10;0.10;;;14.20;53.80;;;;;;5031809;28;20223;-57
2023/08/11 08:48:46;;;;;;;0.10;0.10;;;14.20;53.70;;;;;;5031548;28;20196;-54
2023/08/11 08:51:17;;;;;;;0.10;0.10;;;14.20;53.70;;;;;;5031142;28;20224;-58
2023/08/11 08:53:47;;;;;;;0.10;0.10;;;14.20;53.70;;;;;;5031597;28;20202;-55
2023/08/11 08:56:18;;;;;;;0.10;0.10;;;14.20;53.80;;;;;;5031701;28;20231;-57
2023/08/11 08:58:51;;;;;;;0.10;0.10;;;14.20;53.80;;;;;;5031368;28;20326;-56
2023/08/11 09:01:22;;;;;;;0.10;0.10;;;14.20;53.80;;;;;;5031467;28;20254;-58
2023/08/11 09:03:53;;;;;;;0.10;0.10;;;14.20;53.80;;;;;;5032342;28;20204;-58
2023/08/11 09:06:24;;;;;;;0.10;0.10;;;14.10;53.80;;;;;;5031543;28;20212;-56
2023/08/11 09:08:55;;;;;;;0.10;0.10;;;14.10;53.80;;;;;;5031434;28;20219;-58
2023/08/11 09:11:25;;;;;;;0.10;0.10;;;14.10;53.80;;;;;;5031755;28;20224;-57
2023/08/11 09:14:05;;;;;;;0.10;0.10;;;14.10;53.80;;;;;;5030796;28;20200;-58
2023/08/11 09:16:37;;;;;;;0.10;0.10;;;14.10;53.80;;;;;;5031024;28;20216;-58
2023/08/11 09:19:09;;;;;;;0.13;0.13;;;14.10;53.80;;;;;;5031222;28;20207;-55
2023/08/11 09:21:42;;;;;;;0.10;0.10;;;14.00;54.00;;;;;;5031965;28;20674;-58
2023/08/11 09:24:13;;;;;;;0.10;0.10;;;14.10;54.20;;;;;;5028304;28;20219;-56
2023/08/11 09:26:46;;;;;;;0.17;0.17;;;14.10;54.20;;;;;;5030223;28;20243;-56
2023/08/11 09:29:19;;;;;;;0.10;0.10;;;14.10;54.20;;;;;;5030483;28;20197;-54
2023/08/11 09:31:51;;;;;;;0.10;0.10;;;14.10;54.10;;;;;;5029941;28;20220;-57
2023/08/11 09:34:22;;;;;;;0.10;0.10;;;14.00;54.10;;;;;;5030369;28;20196;-58
2023/08/11 09:36:53;;;;;;;0.10;0.10;;;14.00;54.10;;;;;;5031117;28;20216;-57
2023/08/11 09:39:24;;;;;;;0.10;0.10;;;14.00;54.10;;;;;;5030065;28;20644;-57
2023/08/11 09:41:54;;;;;;;0.10;0.10;;;14.00;54.10;;;;;;5022292;28;20193;-58
2023/08/11 09:44:27;;;;;;;0.10;0.10;;;14.00;54.10;;;;;;5023757;28;20211;-57
2023/08/11 09:46:58;;;;;;;0.10;0.10;;;14.00;54.10;;;;;;5030063;28;20220;-52
2023/08/11 09:49:29;;;;;;;0.10;0.10;;;14.00;54.10;;;;;;5029302;28;20192;-53
2023/08/11 09:52:02;;;;;;;0.10;0.10;;;14.00;54.10;;;;;;5030084;28;20231;-55
2023/08/11 09:54:33;;;;;;;0.10;0.10;;;13.90;54.00;;;;;;5029366;28;20226;-56
2023/08/11 09:57:05;;;;;;;0.20;0.20;;;13.90;54.00;;;;;;5029452;28;20228;-56
2023/08/11 09:59:38;;;;;;;0.10;0.10;;;13.90;54.00;;;;;;5030148;28;20192;-56
2023/08/11 10:02:14;;;;;;;0.10;0.10;;;13.90;54.00;;;;;;5029833;28;20215;-52
2023/08/11 10:04:48;;;;;;;0.10;0.10;;;13.90;54.00;;;;;;5030603;28;20200;-58
2023/08/11 10:07:21;;;;;;;0.10;0.10;;;13.90;54.10;;;;;;5028443;28;20220;-58
2023/08/11 10:09:54;;;;;;;0.20;0.20;;;13.90;54.00;;;;;;5030653;28;20203;-56
2023/08/11 10:12:25;;;;;;;0.10;0.10;;;13.90;54.00;;;;;;5028718;28;20675;-56
2023/08/11 10:14:57;;;;;;;0.10;0.10;;;13.90;54.10;;;;;;5033442;28;20204;-56
2023/08/11 10:17:28;;;;;;;0.10;0.10;;;13.90;54.10;;;;;;5033276;28;20266;-47
2023/08/11 10:20:04;;;;;;;0.10;0.10;;;13.80;54.00;;;;;;5032333;28;20644;-57
2023/08/11 10:22:35;;;;;;;0.10;0.10;;;13.80;54.00;;;;;;5032818;28;20549;-56
2023/08/11 10:25:07;;;;;;;0.10;0.10;;;13.80;54.00;;;;;;5033988;28;20610;-52
2023/08/11 10:27:38;;;;;;;0.10;0.10;;;13.80;54.10;;;;;;5033284;28;20307;-58
2023/08/11 10:30:14;;;;;;;0.10;0.10;;;13.80;54.00;;;;;;5032714;28;20193;-55
2023/08/11 10:32:45;;;;;;;0.10;0.10;;;13.80;54.00;;;;;;5034349;28;20266;-52
2023/08/11 10:35:22;;;;;;;0.10;0.10;;;13.80;54.00;;;;;;5029881;28;20679;-54
2023/08/11 10:38:00;;;;;;;0.10;0.10;;;13.80;54.10;;;;;;5032961;28;20218;-57
2023/08/11 10:40:39;;;;;;;0.10;0.10;;;13.70;54.00;;;;;;5044756;28;20210;-55
2023/08/11 10:43:10;;;;;;;0.10;0.10;;;13.70;54.00;;;;;;5034144;28;20223;-48
2023/08/11 10:45:44;;;;;;;0.10;0.10;;;13.70;54.00;;;;;;5048352;28;20321;-54
2023/08/11 10:48:15;;;;;;;0.10;0.10;;;13.70;54.00;;;;;;5034079;28;20196;-51
2023/08/11 10:50:47;;;;;;;0.10;0.10;;;13.70;54.00;;;;;;5033304;28;20242;-53
2023/08/11 10:53:22;;;;;;;0.10;0.10;;;13.70;54.00;;;;;;5033047;28;20200;-49
2023/08/11 10:56:05;;;;;;;0.10;0.10;;;13.70;54.00;;;;;;5033511;28;20223;-49
2023/08/11 10:58:39;;;;;;;0.10;0.10;;;13.60;54.00;;;;;;5035361;28;20191;-48
2023/08/11 11:01:12;;;;;;;0.10;0.10;;;13.60;54.00;;;;;;5053029;28;20286;-49
2023/08/11 11:03:45;;;;;;;0.10;0.10;;;13.60;54.00;;;;;;5053342;28;20211;-58
2023/08/11 11:06:18;;;;;;;0.10;0.10;;;13.60;54.00;;;;;;5053611;28;20219;-57
2023/08/11 11:08:49;;;;;;;0.10;0.10;;;13.60;54.00;;;;;;5052729;28;20192;-57
2023/08/11 11:11:20;;;;;;;0.10;0.10;;;13.60;54.00;;;;;;5053108;28;20223;-57
2023/08/11 11:13:51;;;;;;;0.20;0.20;;;13.50;54.00;;;;;;5052439;28;20223;-57
2023/08/11 11:16:23;;;;;;;0.10;0.10;;;13.50;54.00;;;;;;5052935;28;20211;-57
2023/08/11 11:18:54;;;;;;;0.10;0.10;;;13.50;54.00;;;;;;5040807;28;20200;-57
2023/08/11 11:21:26;;;;;;;0.10;0.10;;;13.50;54.00;;;;;;5031886;28;20200;-58
2023/08/11 11:23:57;;;;;;;0.10;0.10;;;13.50;54.00;;;;;;5032305;28;20200;-51
2023/08/11 11:26:28;;;;;;;0.10;0.10;;;13.50;54.00;;;;;;5031615;28;20224;-58
2023/08/11 11:29:00;;;;;;;0.10;0.10;;;13.50;54.00;;;;;;5032382;28;20196;-54
2023/08/11 11:31:34;;;;;;;0.10;0.10;;;13.40;54.00;;;;;;5032148;28;20239;-57
2023/08/11 11:34:05;;;;;;;0.20;0.20;;;13.40;54.00;;;;;;5032336;28;20192;-57
2023/08/11 11:36:36;;;;;;;0.10;0.10;;;13.40;54.00;;;;;;5033109;28;20212;-57
2023/08/11 11:39:08;;;;;;;0.10;0.10;;;13.40;54.00;;;;;;5032283;28;20226;-58
2023/08/11 11:41:38;;;;;;;0.10;0.10;;;13.40;54.00;;;;;;5031969;28;20192;-58
2023/08/11 11:44:09;;;;;;;0.17;0.17;;;13.40;54.00;;;;;;5033267;28;20192;-57
2023/08/11 11:46:42;;;;;;;0.10;0.10;;;13.40;54.00;;;;;;5033048;28;20220;-53
2023/08/11 11:49:16;;;;;;;0.10;0.10;;;13.40;54.00;;;;;;5033049;28;20199;-56
2023/08/11 11:51:47;;;;;;;0.10;0.10;;;13.40;54.00;;;;;;5032839;28;20294;-55
2023/08/11 11:54:17;;;;;;;0.15;0.15;;;13.30;54.00;;;;;;5032490;28;20201;-57
2023/08/11 11:56:48;;;;;;;0.10;0.10;;;13.40;54.00;;;;;;5033048;28;20216;-57
2023/08/11 11:59:19;;;;;;;0.10;0.10;;;13.30;53.90;;;;;;5032450;28;20200;-55
2023/08/11 12:01:51;;;;;;;0.15;0.15;;;13.30;54.00;;;;;;5032221;28;20558;-57
2023/08/11 12:04:22;;;;;;;0.15;0.15;;;13.30;54.00;;;;;;5032868;28;20200;-56
2023/08/11 12:06:53;;;;;;;0.10;0.10;;;13.30;54.00;;;;;;5032341;28;20220;-56
2023/08/11 12:09:23;;;;;;;0.13;0.13;;;13.30;54.00;;;;;;5032537;28;20215;-54
2023/08/11 12:11:57;;;;;;;0.10;0.10;;;13.30;54.00;;;;;;5032369;28;20235;-56
2023/08/11 12:14:29;;;;;;;0.10;0.10;;;13.30;54.00;;;;;;5032281;28;20200;-57
2023/08/11 12:17:02;;;;;;;0.10;0.10;;;13.20;54.00;;;;;;5032655;28;20220;-56
2023/08/11 12:19:33;;;;;;;0.10;0.10;;;13.20;54.00;;;;;;5032582;28;20558;-56
2023/08/11 12:22:04;;;;;;;0.10;0.10;;;13.20;54.00;;;;;;5032589;28;20196;-54
2023/08/11 12:24:35;;;;;;;0.10;0.10;;;13.20;54.00;;;;;;5032585;28;20242;-55
2023/08/11 12:27:06;;;;;;;0.10;0.10;;;13.20;54.00;;;;;;5032379;28;20220;-55
2023/08/11 12:29:36;;;;;;;0.10;0.10;;;13.20;54.00;;;;;;5032505;28;20196;-58
2023/08/11 12:32:09;;;;;;;0.10;0.10;;;13.20;54.00;;;;;;5031609;28;20238;-55
2023/08/11 12:34:40;;;;;;;0.10;0.10;;;13.20;54.00;;;;;;5031661;28;20903;-51
2023/08/11 12:37:11;;;;;;;0.10;0.10;;;13.20;54.00;;;;;;5030290;28;20219;-56
2023/08/11 12:39:41;;;;;;;0.10;0.10;;;13.10;54.00;;;;;;5031968;28;20314;-57
2023/08/11 12:42:13;;;;;;;0.13;0.13;;;13.20;54.10;;;;;;5032262;28;20196;-57
2023/08/11 12:44:43;;;;;;;0.10;0.10;;;13.10;54.00;;;;;;5031811;28;20694;-49
2023/08/11 12:47:16;;;;;;;0.10;0.10;;;13.10;54.00;;;;;;5031858;28;20216;-55
2023/08/11 12:49:46;;;;;;;0.10;0.10;;;13.10;54.00;;;;;;5032139;28;20196;-56
2023/08/11 12:52:17;;;;;;;0.10;0.10;;;13.10;54.00;;;;;;5031891;28;20223;-55
2023/08/11 12:54:48;;;;;;;0.10;0.10;;;13.10;54.00;;;;;;5032100;28;20596;-53
2023/08/11 12:57:18;;;;;;;0.10;0.10;;;13.10;54.00;;;;;;5031809;28;20239;-57
2023/08/11 12:59:49;;;;;;;0.10;0.10;;;13.10;54.00;;;;;;5031772;28;20206;-54
2023/08/11 13:02:21;;;;;;;0.13;0.13;;;13.10;54.00;;;;;;5031950;28;20196;-55
2023/08/11 13:04:52;;;;;;;0.10;0.10;;;13.10;54.00;;;;;;5032575;28;20204;-58
2023/08/11 13:07:23;;;;;;;0.10;0.10;;;13.10;54.00;;;;;;5031365;28;20211;-54
2023/08/11 13:09:53;;;;;;;0.10;0.10;;;13.10;54.00;;;;;;5031849;28;20200;-57